Tribbey, Kentucky
Current Conditions -  °F | °C
As of 11:53 PM on Friday 24 Oct 2014 (Local Time) from KJKL Reporting Station
Clear Clear  
Wind Chill: 50°   Ceiling: Unl
Heat Index: 50°   Visibility: 10mi
Dew Point: 41°   Wind: 3mph
Humidity: 71%   Direction: 170°S
Pressure: 30.07"   Gusts: NA
Location:  37.3318°N, 83.1697°W
Report Text: KJKL 250353Z AUTO 17003KT 10SM CLR 10/05 A3007 RMK AO2 SLP180 T01000050
Loading
Personal Weather Stations






























Interactive Weather Map
Tropical Storm Tracking
New forecast layout! Learn more

10-Day Weather Forecast

Advertisements
Track Severe Weather on mobile